createdAt,value
2019-04-10T00:02:26.259Z,98372.66
2019-04-10T00:04:55.866Z,98378.05
2019-04-10T00:07:25.721Z,98377.23
2019-04-10T00:09:55.378Z,98373.78
2019-04-10T00:12:25.453Z,98378.09
2019-04-10T00:14:55.213Z,98375.19
2019-04-10T00:17:25.021Z,98375.00
2019-04-10T00:19:54.644Z,98367.53
2019-04-10T00:22:24.344Z,98370.09
2019-04-10T00:24:54.581Z,98363.84
2019-04-10T00:27:24.104Z,98363.62
2019-04-10T00:29:54.399Z,98370.72
2019-04-10T00:32:24.263Z,98366.02
2019-04-10T00:34:54.064Z,98370.56
2019-04-10T00:37:28.498Z,98369.80
2019-04-10T00:39:55.110Z,98370.95
2019-04-10T00:42:27.425Z,98371.38
2019-04-10T00:44:57.262Z,98370.40
2019-04-10T00:47:27.078Z,98372.77
2019-04-10T00:49:56.611Z,98376.18
2019-04-10T00:52:26.287Z,98371.81
2019-04-10T00:54:55.813Z,98366.19
2019-04-10T00:57:25.518Z,98367.05
2019-04-10T00:59:55.026Z,98366.16
2019-04-10T01:02:26.862Z,98367.60
2019-04-10T01:04:56.518Z,98372.34
2019-04-10T01:07:35.949Z,98370.95
2019-04-10T01:09:57.621Z,98371.45
2019-04-10T01:12:27.979Z,98364.97
2019-04-10T01:14:58.197Z,98369.44
2019-04-10T01:17:28.542Z,98361.34
2019-04-10T01:19:58.587Z,98365.39
2019-04-10T01:22:28.335Z,98365.46
2019-04-10T01:24:57.870Z,98358.36
2019-04-10T01:27:27.809Z,98362.24
2019-04-10T01:29:57.958Z,98354.55
2019-04-10T01:32:29.950Z,98355.58
2019-04-10T01:35:00.226Z,98349.03
2019-04-10T01:37:29.846Z,98355.48
2019-04-10T01:39:59.382Z,98352.22
2019-04-10T01:42:28.914Z,98356.49
2019-04-10T01:45:01.328Z,98356.63
2019-04-10T01:47:31.048Z,98352.02
2019-04-10T01:50:00.779Z,98358.33
2019-04-10T01:52:31.136Z,98355.15
2019-04-10T01:55:03.179Z,98351.66
2019-04-10T01:57:32.505Z,98356.13
2019-04-10T02:00:02.745Z,98348.27
2019-04-10T02:02:34.018Z,98350.21
2019-04-10T02:05:04.119Z,98350.93
2019-04-10T02:07:34.070Z,98349.42
2019-04-10T02:10:05.908Z,98346.30
2019-04-10T02:12:35.526Z,98348.23
2019-04-10T02:15:07.096Z,98347.45
2019-04-10T02:17:38.904Z,98344.75
2019-04-10T02:20:10.531Z,98348.92
2019-04-10T02:22:40.538Z,98346.30
2019-04-10T02:25:11.806Z,98338.74
2019-04-10T02:27:42.554Z,98342.25
2019-04-10T02:30:16.365Z,98341.90
2019-04-10T02:32:47.742Z,98342.52
2019-04-10T02:35:18.926Z,98344.80
2019-04-10T02:37:52.393Z,98350.31
2019-04-10T02:40:19.427Z,98350.18
2019-04-10T02:42:51.858Z,98347.63
2019-04-10T02:45:21.949Z,98350.74
2019-04-10T02:47:52.827Z,98350.31
2019-04-10T02:50:22.823Z,98349.89
2019-04-10T02:52:52.450Z,98345.58
2019-04-10T02:55:23.037Z,98350.38
2019-04-10T02:57:54.217Z,98352.45
2019-04-10T03:00:25.048Z,98350.25
2019-04-10T03:02:57.151Z,98358.53
2019-04-10T03:05:27.486Z,98353.89
2019-04-10T03:07:58.226Z,98358.43
2019-04-10T03:10:38.293Z,98350.08
2019-04-10T03:13:00.675Z,98353.69
2019-04-10T03:15:31.504Z,98352.84
2019-04-10T03:18:01.877Z,98360.56
2019-04-10T03:20:32.164Z,98355.83
2019-04-10T03:23:02.040Z,98362.70
2019-04-10T03:25:31.601Z,98353.89
2019-04-10T03:28:01.208Z,98355.90
2019-04-10T03:30:32.406Z,98358.16
2019-04-10T03:33:26.107Z,98352.64
2019-04-10T03:35:53.201Z,98352.09
2019-04-10T03:38:23.713Z,98351.92
2019-04-10T03:40:53.788Z,98352.22
2019-04-10T03:43:23.390Z,98349.03
2019-04-10T03:45:53.013Z,98354.55
2019-04-10T03:48:23.041Z,98357.05
2019-04-10T03:50:52.802Z,98361.36
2019-04-10T03:53:23.251Z,98361.95
2019-04-10T03:55:53.695Z,98360.02
2019-04-10T03:58:23.273Z,98358.66
2019-04-10T04:00:52.841Z,98360.44
2019-04-10T04:03:22.594Z,98358.59
2019-04-10T04:05:53.117Z,98356.83
2019-04-10T04:08:23.557Z,98362.22
2019-04-10T04:10:53.323Z,98362.45
2019-04-10T04:13:23.687Z,98361.23
2019-04-10T04:15:53.443Z,98364.05
2019-04-10T04:18:22.980Z,98363.23
2019-04-10T04:20:52.998Z,98363.92
2019-04-10T04:23:22.613Z,98366.25
2019-04-10T04:25:52.237Z,98362.45
2019-04-10T04:28:21.828Z,98366.84
2019-04-10T04:30:53.309Z,98365.62
2019-04-10T04:33:23.223Z,98367.47
2019-04-10T04:35:53.244Z,98368.03
2019-04-10T04:38:23.643Z,98367.90
2019-04-10T04:40:54.786Z,98363.59
2019-04-10T04:43:25.124Z,98368.98
2019-04-10T04:45:55.429Z,98371.19
2019-04-10T04:48:25.313Z,98368.75
2019-04-10T04:50:56.666Z,98369.25
2019-04-10T04:53:26.501Z,98374.08
2019-04-10T04:55:56.121Z,98372.73
2019-04-10T04:58:26.346Z,98376.18
2019-04-10T05:00:56.466Z,98383.48
2019-04-10T05:03:27.003Z,98384.63
2019-04-10T05:05:56.694Z,98393.63
2019-04-10T05:08:26.225Z,98392.53
2019-04-10T05:10:56.072Z,98395.29
2019-04-10T05:13:26.376Z,98400.67
2019-04-10T05:15:55.927Z,98394.59
2019-04-10T05:18:25.507Z,98400.42
2019-04-10T05:20:55.039Z,98402.68
2019-04-10T05:23:24.554Z,98406.77
2019-04-10T05:25:54.223Z,98414.43
2019-04-10T05:28:24.324Z,98415.48
2019-04-10T05:30:54.681Z,98418.36
2019-04-10T05:33:24.710Z,98416.78
2019-04-10T05:35:55.001Z,98421.01
2019-04-10T05:38:24.957Z,98424.66
2019-04-10T05:40:55.193Z,98426.50
2019-04-10T05:43:24.734Z,98428.58
2019-04-10T05:45:55.142Z,98432.47
2019-04-10T05:48:25.435Z,98438.58
2019-04-10T05:51:02.302Z,98443.33
2019-04-10T05:53:27.256Z,98437.30
2019-04-10T05:55:57.911Z,98441.72
2019-04-10T05:58:27.510Z,98441.41
2019-04-10T06:00:58.900Z,98443.53
2019-04-10T06:03:28.441Z,98445.52
2019-04-10T06:06:00.460Z,98455.39
2019-04-10T06:08:29.308Z,98454.75
2019-04-10T06:10:58.857Z,98463.76
2019-04-10T06:13:28.654Z,98464.59
2019-04-10T06:15:59.374Z,98462.33
2019-04-10T06:18:29.263Z,98464.90
2019-04-10T06:20:58.972Z,98463.11
2019-04-10T06:23:29.607Z,98463.19
2019-04-10T06:26:00.516Z,98472.25
2019-04-10T06:28:30.967Z,98469.70
2019-04-10T06:31:00.962Z,98465.02
2019-04-10T06:33:31.749Z,98463.10
2019-04-10T06:36:02.761Z,98468.56
2019-04-10T06:38:32.381Z,98467.09
2019-04-10T06:41:02.207Z,98470.56
2019-04-10T06:43:32.842Z,98468.13
2019-04-10T06:46:02.640Z,98464.57
2019-04-10T06:48:32.232Z,98476.08
2019-04-10T06:51:02.144Z,98466.69
2019-04-10T06:53:31.912Z,98472.20
2019-04-10T06:56:02.891Z,98468.81
2019-04-10T06:58:32.562Z,98466.98
2019-04-10T07:01:02.265Z,98467.47
2019-04-10T07:03:47.906Z,98471.34
2019-04-10T07:06:12.268Z,98471.55
2019-04-10T07:08:34.917Z,98474.52
2019-04-10T07:11:09.051Z,98478.19
2019-04-10T07:13:39.496Z,98474.36
2019-04-10T07:16:09.490Z,98479.21
2019-04-10T07:18:39.671Z,98481.01
2019-04-10T07:21:10.615Z,98483.70
2019-04-10T07:23:40.769Z,98482.67
2019-04-10T07:26:10.474Z,98488.68
2019-04-10T07:28:43.973Z,98488.52
2019-04-10T07:31:11.672Z,98479.91
2019-04-10T07:33:42.492Z,98487.09
2019-04-10T07:36:14.007Z,98487.82
2019-04-10T07:38:43.723Z,98491.70
2019-04-10T07:41:19.425Z,98494.02
2019-04-10T07:43:44.802Z,98495.41
2019-04-10T07:46:15.219Z,98492.15
2019-04-10T07:48:45.580Z,98494.96
2019-04-10T07:51:15.304Z,98496.75
2019-04-10T07:53:44.940Z,98494.55
2019-04-10T07:56:17.988Z,98500.02
2019-04-10T07:58:46.095Z,98503.20
2019-04-10T08:01:16.194Z,98508.51
2019-04-10T08:03:46.529Z,98511.44
2019-04-10T08:06:16.193Z,98504.84
2019-04-10T08:08:46.638Z,98511.81
2019-04-10T08:11:17.505Z,98515.94
2019-04-10T08:13:47.235Z,98515.97
2019-04-10T08:16:17.068Z,98518.58
2019-04-10T08:18:47.760Z,98524.16
2019-04-10T08:21:17.729Z,98524.24
2019-04-10T08:23:48.554Z,98518.42
2019-04-10T08:26:18.363Z,98522.34
2019-04-10T08:28:48.021Z,98526.34
2019-04-10T08:31:17.713Z,98530.37
2019-04-10T08:33:47.420Z,98538.61
2019-04-10T08:36:17.214Z,98538.05
2019-04-10T08:38:46.876Z,98539.17
2019-04-10T08:41:17.186Z,98544.06
2019-04-10T08:43:46.785Z,98551.46
2019-04-10T08:46:17.680Z,98549.94
2019-04-10T08:48:47.684Z,98553.77
2019-04-10T08:51:17.421Z,98557.92
2019-04-10T08:53:46.988Z,98559.05
2019-04-10T08:56:16.582Z,98566.70
2019-04-10T08:58:48.233Z,98570.75
2019-04-10T09:01:17.577Z,98569.43
2019-04-10T09:03:47.236Z,98572.12
2019-04-10T09:06:17.529Z,98571.80
2019-04-10T09:08:47.237Z,98570.59
2019-04-10T09:11:25.575Z,98572.63
2019-04-10T09:13:48.620Z,98566.86
2019-04-10T09:16:18.447Z,98575.02
2019-04-10T09:18:49.547Z,98579.36
2019-04-10T09:21:19.460Z,98572.58
2019-04-10T09:23:52.848Z,98573.16
2019-04-10T09:26:20.385Z,98577.91
2019-04-10T09:28:50.764Z,98578.02
2019-04-10T09:31:20.446Z,98585.70
2019-04-10T09:33:50.040Z,98583.10
2019-04-10T09:36:19.904Z,98587.62
2019-04-10T09:38:50.678Z,98592.43
2019-04-10T09:41:21.621Z,98585.42
2019-04-10T09:43:51.205Z,98590.20
2019-04-10T09:46:20.789Z,98588.85
2019-04-10T09:48:50.345Z,98587.14
2019-04-10T09:51:19.859Z,98590.14
2019-04-10T09:53:49.454Z,98588.15
2019-04-10T09:56:19.349Z,98593.50
2019-04-10T09:58:49.214Z,98596.92
2019-04-10T10:01:19.949Z,98595.39
2019-04-10T10:03:50.714Z,98593.95
2019-04-10T10:06:27.441Z,98592.86
2019-04-10T10:08:52.307Z,98589.76
2019-04-10T10:11:22.229Z,98596.58
2019-04-10T10:13:52.261Z,98592.78
2019-04-10T10:16:23.851Z,98589.64
2019-04-10T10:18:53.976Z,98589.84
2019-04-10T10:21:24.096Z,98592.74
2019-04-10T10:23:54.065Z,98593.67
2019-04-10T10:26:24.003Z,98596.89
2019-04-10T10:28:54.606Z,98596.16
2019-04-10T10:31:26.259Z,98600.41
2019-04-10T10:33:56.535Z,98599.68
2019-04-10T10:36:36.654Z,98594.77
2019-04-10T10:39:06.886Z,98596.42
2019-04-10T10:41:29.780Z,98600.18
2019-04-10T10:44:00.521Z,98596.37
2019-04-10T10:46:31.375Z,98596.80
2019-04-10T10:49:02.201Z,98596.91
2019-04-10T10:51:32.788Z,98601.22
2019-04-10T10:54:04.088Z,98600.66
2019-04-10T10:56:34.209Z,98604.08
2019-04-10T10:59:05.017Z,98602.03
2019-04-10T11:01:35.841Z,98605.09
2019-04-10T11:04:06.758Z,98604.44
2019-04-10T11:06:49.741Z,98607.44
2019-04-10T11:09:12.599Z,98611.05
2019-04-10T11:11:42.257Z,98604.19
2019-04-10T11:14:13.194Z,98601.91
2019-04-10T11:16:42.977Z,98598.28
2019-04-10T11:19:13.046Z,98605.62
2019-04-10T11:21:42.986Z,98599.44
2019-04-10T11:24:13.664Z,98599.85
2019-04-10T11:26:44.035Z,98609.45
2019-04-10T11:29:14.356Z,98603.76
2019-04-10T11:31:45.784Z,98601.84
2019-04-10T11:34:16.586Z,98601.50
2019-04-10T11:36:46.537Z,98606.11
2019-04-10T11:41:49.106Z,98609.13
2019-04-10T11:44:21.261Z,98609.81
2019-04-10T11:46:52.667Z,98602.62
2019-04-10T11:49:22.850Z,98603.94
2019-04-10T11:51:55.802Z,98608.02
2019-04-10T11:54:27.812Z,98607.70
2019-04-10T11:56:58.633Z,98605.55
2019-04-10T11:59:28.661Z,98607.94
2019-04-10T12:02:02.827Z,98607.50
2019-04-10T12:04:32.412Z,98610.05
2019-04-10T12:07:02.082Z,98607.34
2019-04-10T12:12:03.628Z,98612.26
2019-04-10T12:14:33.234Z,98612.73
2019-04-10T12:17:03.322Z,98620.49
2019-04-10T12:19:33.289Z,98623.11
2019-04-10T12:22:03.177Z,98624.61
2019-04-10T12:24:32.937Z,98620.79
2019-04-10T12:27:02.612Z,98620.53
2019-04-10T12:29:33.011Z,98629.20
2019-04-10T12:32:02.654Z,98636.25
2019-04-10T12:34:32.264Z,98631.80
2019-04-10T12:37:02.854Z,98630.95
2019-04-10T12:39:32.644Z,98634.23
2019-04-10T12:42:02.368Z,98636.39
2019-04-10T12:44:33.797Z,98638.74
2019-04-10T12:47:03.753Z,98634.80
2019-04-10T12:49:33.908Z,98641.20
2019-04-10T12:52:03.770Z,98643.13
2019-04-10T12:54:33.553Z,98641.70
2019-04-10T12:57:04.257Z,98645.61
2019-04-10T12:59:33.977Z,98649.59
2019-04-10T13:02:04.951Z,98647.38
2019-04-10T13:04:34.617Z,98643.55
2019-04-10T13:07:05.340Z,98647.60
2019-04-10T13:09:35.196Z,98647.80
2019-04-10T13:12:04.959Z,98645.75
2019-04-10T13:14:34.886Z,98643.23
2019-04-10T13:17:04.771Z,98646.44
2019-04-10T13:19:35.647Z,98647.24
2019-04-10T13:22:05.346Z,98652.29
2019-04-10T13:24:35.396Z,98651.58
2019-04-10T13:27:06.194Z,98652.73
2019-04-10T13:29:36.407Z,98654.09
2019-04-10T13:32:07.623Z,98652.73
2019-04-10T13:34:37.475Z,98650.86
2019-04-10T13:37:08.260Z,98651.37
2019-04-10T13:39:37.946Z,98652.23
2019-04-10T13:42:07.718Z,98647.69
2019-04-10T13:44:38.340Z,98656.84
2019-04-10T13:47:09.048Z,98655.33
2019-04-10T13:49:38.924Z,98653.30
2019-04-10T13:52:08.567Z,98654.43
2019-04-10T13:54:38.886Z,98653.16
2019-04-10T13:57:08.515Z,98654.74
2019-04-10T13:59:39.366Z,98661.50
2019-04-10T14:02:11.104Z,98654.43
2019-04-10T14:04:40.886Z,98655.46
2019-04-10T14:07:11.547Z,98658.08
2019-04-10T14:09:48.023Z,98650.55
2019-04-10T14:12:12.941Z,98653.92
2019-04-10T14:14:42.674Z,98657.80
2019-04-10T14:17:13.124Z,98655.91
2019-04-10T14:19:42.911Z,98652.31
2019-04-10T14:22:13.483Z,98656.91
2019-04-10T14:24:46.400Z,98655.81
2019-04-10T14:27:16.346Z,98655.50
2019-04-10T14:29:46.917Z,98657.27
2019-04-10T14:32:18.470Z,98657.24
2019-04-10T14:34:48.906Z,98665.77
2019-04-10T14:37:19.070Z,98665.17
2019-04-10T14:39:49.381Z,98664.35
2019-04-10T14:42:19.188Z,98665.30
2019-04-10T14:44:50.975Z,98666.80
2019-04-10T14:47:20.356Z,98672.96
2019-04-10T14:49:52.229Z,98674.81
2019-04-10T14:52:21.311Z,98674.95
2019-04-10T14:54:52.199Z,98670.52
2019-04-10T14:57:23.054Z,98675.70
2019-04-10T14:59:52.849Z,98672.84
2019-04-10T15:02:22.580Z,98677.19
2019-04-10T15:04:53.032Z,98677.83
2019-04-10T15:07:22.960Z,98677.46
2019-04-10T15:09:52.586Z,98680.77
2019-04-10T15:12:22.659Z,98683.59
2019-04-10T15:14:52.430Z,98680.23
2019-04-10T15:17:23.077Z,98685.80
2019-04-10T15:19:53.707Z,98683.23
2019-04-10T15:22:23.527Z,98684.18
2019-04-10T15:24:53.887Z,98688.01
2019-04-10T15:27:24.945Z,98690.22
2019-04-10T15:29:54.771Z,98686.56
2019-04-10T15:32:25.259Z,98691.06
2019-04-10T15:34:55.781Z,98694.16
2019-04-10T15:37:25.534Z,98696.02
2019-04-10T15:39:55.144Z,98690.71
2019-04-10T15:42:24.838Z,98691.85
2019-04-10T15:44:54.529Z,98690.56
2019-04-10T15:47:24.936Z,98697.66
2019-04-10T15:49:54.628Z,98687.82
2019-04-10T15:52:24.175Z,98697.34
2019-04-10T15:54:53.989Z,98696.15
2019-04-10T15:57:24.899Z,98695.08
2019-04-10T15:59:54.644Z,98693.77
2019-04-10T16:02:24.296Z,98696.58
2019-04-10T16:04:55.159Z,98687.41
2019-04-10T16:07:25.202Z,98688.20
2019-04-10T16:09:57.663Z,98699.20
2019-04-10T16:12:27.690Z,98694.64
2019-04-10T16:14:57.331Z,98695.13
2019-04-10T16:17:34.418Z,98698.14
2019-04-10T16:20:19.688Z,98697.88
2019-04-10T16:22:51.118Z,98692.92
2019-04-10T16:25:30.121Z,98699.92
2019-04-10T16:28:02.064Z,98691.58
2019-04-10T16:30:32.962Z,98691.22
2019-04-10T16:33:03.048Z,98690.23
2019-04-10T16:35:35.254Z,98696.80
2019-04-10T16:38:06.853Z,98693.74
2019-04-10T16:40:38.269Z,98698.75
2019-04-10T16:43:08.184Z,98698.25
2019-04-10T16:45:38.527Z,98700.00
2019-04-10T16:48:08.700Z,98700.41
2019-04-10T16:50:38.536Z,98701.93
2019-04-10T16:53:08.274Z,98700.49
2019-04-10T16:55:38.116Z,98698.59
2019-04-10T16:58:07.958Z,98702.42
2019-04-10T17:00:37.878Z,98708.36
2019-04-10T17:03:07.660Z,98706.34
2019-04-10T17:05:37.711Z,98710.97
2019-04-10T17:08:07.832Z,98715.91
2019-04-10T17:10:38.705Z,98715.27
2019-04-10T17:13:08.993Z,98715.61
2019-04-10T17:15:39.870Z,98713.61
2019-04-10T17:18:10.727Z,98714.27
2019-04-10T17:20:40.598Z,98719.25
2019-04-10T17:23:10.321Z,98720.03
2019-04-10T17:25:40.158Z,98723.42
2019-04-10T17:28:10.239Z,98723.00
2019-04-10T17:30:40.120Z,98724.95
2019-04-10T17:33:11.074Z,98730.91
2019-04-10T17:35:40.756Z,98732.55
2019-04-10T17:38:10.342Z,98730.22
2019-04-10T17:40:46.425Z,98733.28
2019-04-10T17:43:12.701Z,98731.98
2019-04-10T17:45:42.897Z,98733.09
2019-04-10T17:48:13.577Z,98739.15
2019-04-10T17:50:43.716Z,98739.98
2019-04-10T17:53:15.209Z,98737.98
2019-04-10T17:55:45.227Z,98742.28
2019-04-10T17:58:14.957Z,98745.80
2019-04-10T18:00:47.764Z,98748.91
2019-04-10T18:03:18.620Z,98749.16
2019-04-10T18:05:48.822Z,98754.88
2019-04-10T18:08:18.910Z,98752.72
2019-04-10T18:10:52.501Z,98759.02
2019-04-10T18:13:20.548Z,98753.30
2019-04-10T18:15:50.603Z,98756.14
2019-04-10T18:18:20.372Z,98752.26
2019-04-10T18:20:51.128Z,98759.98
2019-04-10T18:23:20.798Z,98762.80
2019-04-10T18:25:50.527Z,98774.20
2019-04-10T18:28:21.321Z,98768.95
2019-04-10T18:30:52.249Z,98768.47
2019-04-10T18:33:22.451Z,98778.76
2019-04-10T18:35:53.232Z,98782.22
2019-04-10T18:38:25.787Z,98787.14
2019-04-10T18:41:02.275Z,98787.63
2019-04-10T18:43:27.230Z,98796.09
2019-04-10T18:46:07.882Z,98793.63
2019-04-10T18:48:32.509Z,98802.58
2019-04-10T18:51:02.383Z,98803.08
2019-04-10T18:53:33.083Z,98811.00
2019-04-10T18:56:03.064Z,98818.23
2019-04-10T18:58:38.040Z,98814.83
2019-04-10T19:01:14.227Z,98815.05
2019-04-10T19:04:01.460Z,98822.91
2019-04-10T19:06:30.588Z,98826.83
2019-04-10T19:09:10.203Z,98824.13
2019-04-10T19:11:35.419Z,98829.03
2019-04-10T19:14:05.974Z,98827.59
2019-04-10T19:16:37.347Z,98836.27
2019-04-10T19:19:08.114Z,98826.14
2019-04-10T19:21:39.907Z,98834.81
2019-04-10T19:24:09.815Z,98838.00
2019-04-10T19:26:40.002Z,98838.48
2019-04-10T19:29:09.815Z,98841.44
2019-04-10T19:31:41.446Z,98838.62
2019-04-10T19:34:11.267Z,98848.27
2019-04-10T19:36:41.678Z,98849.62
2019-04-10T19:39:11.547Z,98853.07
2019-04-10T19:41:41.958Z,98858.58
2019-04-10T19:44:12.881Z,98855.78
2019-04-10T19:46:43.934Z,98862.86
2019-04-10T19:49:14.300Z,98864.58
2019-04-10T19:51:44.134Z,98872.17
2019-04-10T19:54:13.868Z,98870.70
2019-04-10T19:56:44.624Z,98881.48
2019-04-10T19:59:14.607Z,98879.05
2019-04-10T20:01:44.554Z,98889.20
2019-04-10T20:04:14.538Z,98890.92
2019-04-10T20:06:44.766Z,98889.05
2019-04-10T20:09:14.874Z,98894.06
2019-04-10T20:11:49.688Z,98896.27
2019-04-10T20:14:16.865Z,98902.42
2019-04-10T20:16:47.849Z,98900.08
2019-04-10T20:19:17.639Z,98907.66
2019-04-10T20:21:48.210Z,98905.12
2019-04-10T20:24:18.857Z,98906.48
2019-04-10T20:26:49.660Z,98912.11
2019-04-10T20:29:19.580Z,98910.37
2019-04-10T20:31:50.959Z,98909.42
2019-04-10T20:34:21.241Z,98913.97
2019-04-10T20:36:51.189Z,98912.98
2019-04-10T20:39:21.124Z,98918.87
2019-04-10T20:41:55.062Z,98917.05
2019-04-10T20:44:24.864Z,98918.87
2019-04-10T20:46:54.853Z,98920.31
2019-04-10T20:49:25.869Z,98918.25
2019-04-10T20:51:55.751Z,98921.56
2019-04-10T20:54:25.534Z,98921.08
2019-04-10T20:56:55.074Z,98930.52
2019-04-10T20:59:24.739Z,98927.70
2019-04-10T21:01:55.717Z,98931.85
2019-04-10T21:04:25.659Z,98931.88
2019-04-10T21:06:56.505Z,98932.48
2019-04-10T21:09:26.278Z,98939.81
2019-04-10T21:12:02.227Z,98937.60
2019-04-10T21:14:27.591Z,98946.63
2019-04-10T21:16:58.373Z,98951.26
2019-04-10T21:19:28.959Z,98948.56
2019-04-10T21:21:59.550Z,98953.80
2019-04-10T21:24:29.483Z,98955.60
2019-04-10T21:26:59.145Z,98956.68
2019-04-10T21:29:46.515Z,98958.27
2019-04-10T21:32:34.576Z,98961.73
2019-04-10T21:35:07.452Z,98967.58
2019-04-10T21:37:38.184Z,98974.25
2019-04-10T21:40:09.910Z,98979.69
2019-04-10T21:42:39.715Z,98981.58
2019-04-10T21:45:09.748Z,98983.59
2019-04-10T21:47:39.342Z,98979.28
2019-04-10T21:50:11.125Z,98985.20
2019-04-10T21:52:41.391Z,98987.62
2019-04-10T21:55:11.336Z,98990.76
2019-04-10T21:57:40.849Z,98989.73
2019-04-10T22:00:12.270Z,98988.77
2019-04-10T22:02:42.217Z,98990.14
2019-04-10T22:05:13.035Z,98995.03
2019-04-10T22:07:48.110Z,98997.41
2019-04-10T22:10:26.473Z,99000.05
2019-04-10T22:12:57.495Z,99002.08
2019-04-10T22:15:37.942Z,99004.53
2019-04-10T22:18:07.820Z,99009.43
2019-04-10T22:20:37.614Z,99004.98
2019-04-10T22:23:07.619Z,99009.09
2019-04-10T22:25:37.480Z,99012.89
2019-04-10T22:28:08.322Z,99011.25
2019-04-10T22:30:38.250Z,99007.80
2019-04-10T22:33:08.096Z,99010.48
2019-04-10T22:35:37.910Z,99009.77
2019-04-10T22:38:07.673Z,99016.70
2019-04-10T22:40:38.533Z,99018.14
2019-04-10T22:43:08.464Z,99014.73
2019-04-10T22:45:38.521Z,99018.26
2019-04-10T22:48:08.498Z,99022.92
2019-04-10T22:50:38.637Z,99015.06
2019-04-10T22:53:08.937Z,99017.81
2019-04-10T22:55:38.886Z,99024.72
2019-04-10T22:58:08.891Z,99023.98
2019-04-10T23:00:39.717Z,99026.56
2019-04-10T23:03:09.581Z,99026.16
2019-04-10T23:05:40.548Z,99031.61
2019-04-10T23:08:11.517Z,99028.64
2019-04-10T23:10:41.406Z,99031.61
2019-04-10T23:13:11.990Z,99029.59
2019-04-10T23:15:43.979Z,99026.34
2019-04-10T23:18:13.289Z,99026.19
2019-04-10T23:20:43.848Z,99029.91
2019-04-10T23:23:13.429Z,99035.75
2019-04-10T23:25:43.137Z,99033.74
2019-04-10T23:28:13.540Z,99034.72
2019-04-10T23:30:43.476Z,99036.61
2019-04-10T23:33:13.038Z,99032.78
2019-04-10T23:35:43.379Z,99037.67
2019-04-10T23:38:13.237Z,99039.61
2019-04-10T23:40:43.238Z,99039.90
2019-04-10T23:43:15.453Z,99044.71
2019-04-10T23:45:44.180Z,99042.77
2019-04-10T23:48:14.837Z,99047.39
2019-04-10T23:50:44.592Z,99045.28
2019-04-10T23:53:14.183Z,99046.33
2019-04-10T23:55:43.791Z,99043.56
2019-04-10T23:58:13.922Z,99044.83
